Time;durP1;ratioP1;P1;durP2;ratioP2;P2;SDS_P1;SDS_P2;PMS_P1;PMS_P2;Temp;Humidity;BMP_temperature;BMP_pressure;BME280_temperature;BME280_humidity;BME280_pressure;Samples;Min_cycle;Max_cycle;Signal;HPM_P1;HPM_P2
2020/12/28 00:00:12;;;;;;;15.82;10.95;;;4.40;92.40;;;;;;5096301;28;20028;-54
2020/12/28 00:02:38;;;;;;;17.35;10.80;;;4.50;92.60;;;;;;5094176;28;20123;-52
2020/12/28 00:05:09;;;;;;;23.88;13.05;;;4.50;92.60;;;;;;5096253;28;20108;-50
2020/12/28 00:07:36;;;;;;;24.47;14.03;;;4.40;92.70;;;;;;5096139;28;20028;-53
2020/12/28 00:10:04;;;;;;;20.15;13.10;;;4.50;92.80;;;;;;5096176;28;20260;-54
2020/12/28 00:12:30;;;;;;;16.42;9.98;;;4.60;92.80;;;;;;5095915;28;20097;-52
2020/12/28 00:14:59;;;;;;;17.02;11.15;;;4.50;93.00;;;;;;5096204;28;20024;-50
2020/12/28 00:17:24;;;;;;;21.83;12.98;;;4.70;93.20;;;;;;5095808;28;20063;-52
2020/12/28 00:19:50;;;;;;;21.83;14.50;;;4.80;93.00;;;;;;5095839;28;20051;-51
2020/12/28 00:22:16;;;;;;;26.50;15.30;;;4.70;93.30;;;;;;5077211;28;20039;-52
2020/12/28 00:24:42;;;;;;;22.08;13.73;;;5.00;92.60;;;;;;5095755;28;20039;-51
2020/12/28 00:27:07;;;;;;;32.05;17.13;;;4.90;92.50;;;;;;5093839;28;20379;-55
2020/12/28 00:29:33;;;;;;;27.10;17.08;;;4.80;92.70;;;;;;5077010;28;20125;-51
2020/12/28 00:31:59;;;;;;;23.00;13.07;;;4.90;93.10;;;;;;5095678;28;20028;-54
2020/12/28 00:34:25;;;;;;;17.70;12.07;;;5.10;92.70;;;;;;5095404;28;20119;-54
2020/12/28 00:36:50;;;;;;;19.17;11.85;;;5.20;92.80;;;;;;5094431;28;20114;-54
2020/12/28 00:39:16;;;;;;;17.27;11.35;;;5.00;92.90;;;;;;5095463;28;20103;-52
2020/12/28 00:41:42;;;;;;;14.07;8.93;;;5.10;93.10;;;;;;5095244;28;20028;-53
2020/12/28 00:44:07;;;;;;;16.05;9.10;;;5.10;93.10;;;;;;5095276;28;20028;-51
2020/12/28 00:46:33;;;;;;;22.15;12.48;;;5.10;93.20;;;;;;5095121;28;20024;-52
2020/12/28 00:48:59;;;;;;;18.10;11.02;;;5.20;93.10;;;;;;5095381;28;20028;-54
2020/12/28 00:51:25;;;;;;;16.45;10.52;;;5.20;93.10;;;;;;5093487;28;20071;-51
2020/12/28 00:53:50;;;;;;;13.18;8.65;;;5.30;93.00;;;;;;5095678;28;20070;-53
2020/12/28 00:56:16;;;;;;;11.43;6.10;;;5.30;93.00;;;;;;5095483;28;20028;-53
2020/12/28 00:58:42;;;;;;;15.52;9.05;;;5.30;93.10;;;;;;5095643;28;20035;-55
2020/12/28 01:01:08;;;;;;;12.30;7.47;;;5.40;92.90;;;;;;5094994;28;20024;-53
2020/12/28 01:03:34;;;;;;;14.70;8.40;;;5.40;93.00;;;;;;5109926;28;20036;-53
2020/12/28 01:06:00;;;;;;;13.23;7.55;;;5.50;93.00;;;;;;5094935;28;20024;-51
2020/12/28 01:08:25;;;;;;;13.15;7.68;;;5.50;92.90;;;;;;5094695;28;20529;-51
2020/12/28 01:10:51;;;;;;;10.15;7.03;;;5.60;92.50;;;;;;5094908;28;20016;-51
2020/12/28 01:13:17;;;;;;;13.00;7.47;;;5.60;92.50;;;;;;5093103;28;20043;-51
2020/12/28 01:15:43;;;;;;;13.30;7.50;;;5.70;92.30;;;;;;5094714;28;20548;-52
2020/12/28 01:18:09;;;;;;;10.82;5.65;;;5.80;92.30;;;;;;5094616;28;20028;-52
2020/12/28 01:20:39;;;;;;;8.77;5.90;;;5.80;92.00;;;;;;5092608;28;20526;-50
2020/12/28 01:23:05;;;;;;;12.15;7.25;;;5.90;92.00;;;;;;5094792;28;20031;-52
2020/12/28 01:25:31;;;;;;;13.57;7.75;;;6.00;92.00;;;;;;5094597;28;20024;-54
2020/12/28 01:27:57;;;;;;;13.60;7.05;;;6.00;91.80;;;;;;5094648;28;20024;-53
2020/12/28 01:30:23;;;;;;;13.25;8.10;;;6.00;91.80;;;;;;5059306;28;20043;-55
2020/12/28 01:32:48;;;;;;;7.25;4.85;;;6.10;91.60;;;;;;5094080;28;20040;-51
2020/12/28 01:35:14;;;;;;;8.20;4.60;;;5.90;91.80;;;;;;5094411;28;20028;-54
2020/12/28 01:37:40;;;;;;;13.13;7.78;;;5.80;92.10;;;;;;5094398;28;20111;-52
2020/12/28 01:40:05;;;;;;;12.48;6.63;;;5.80;92.30;;;;;;5094780;28;20085;-52
2020/12/28 01:42:31;;;;;;;12.40;8.18;;;5.80;92.40;;;;;;5094080;28;20058;-54
2020/12/28 01:44:57;;;;;;;9.23;5.75;;;5.90;92.40;;;;;;5094253;28;20020;-53
2020/12/28 01:47:25;;;;;;;10.82;6.82;;;6.00;91.80;;;;;;5094489;28;20032;-51
2020/12/28 01:49:51;;;;;;;10.10;6.68;;;6.20;91.70;;;;;;5094168;28;20585;-50
2020/12/28 01:52:18;;;;;;;10.98;6.57;;;6.30;91.30;;;;;;5093949;28;20123;-54
2020/12/28 01:54:43;;;;;;;9.23;6.47;;;6.30;91.20;;;;;;5094074;28;20020;-54
2020/12/28 01:57:09;;;;;;;9.75;6.30;;;6.40;91.20;;;;;;5094149;28;20024;-53
2020/12/28 01:59:35;;;;;;;7.00;4.22;;;6.50;91.00;;;;;;5058601;28;20438;-51
2020/12/28 02:02:03;;;;;;;9.18;5.47;;;6.40;90.80;;;;;;5093890;28;20093;-52
2020/12/28 02:04:29;;;;;;;7.45;4.75;;;6.40;90.90;;;;;;5093674;28;20032;-51
2020/12/28 02:06:56;;;;;;;6.43;4.05;;;6.30;91.00;;;;;;5093925;28;20031;-52
2020/12/28 02:09:21;;;;;;;9.32;4.80;;;6.40;90.90;;;;;;5092179;28;20031;-53
2020/12/28 02:11:47;;;;;;;8.00;4.95;;;6.30;91.20;;;;;;5093722;28;20526;-52
2020/12/28 02:14:13;;;;;;;9.13;5.50;;;6.30;91.10;;;;;;5093256;28;20032;-51
2020/12/28 02:16:39;;;;;;;5.03;3.78;;;6.40;90.90;;;;;;5093870;28;20064;-53
2020/12/28 02:19:05;;;;;;;8.60;4.80;;;6.50;90.60;;;;;;5093769;28;20028;-51
2020/12/28 02:21:37;;;;;;;7.60;5.40;;;6.50;90.60;;;;;;5093720;28;20055;-50
2020/12/28 02:24:04;;;;;;;6.45;4.47;;;6.60;90.60;;;;;;5093792;28;20023;-54
2020/12/28 02:26:30;;;;;;;6.15;4.28;;;6.60;90.50;;;;;;5093576;28;20099;-50
2020/12/28 02:28:55;;;;;;;5.70;3.90;;;6.50;90.50;;;;;;5093632;28;20063;-53
2020/12/28 02:31:21;;;;;;;5.45;3.13;;;6.60;90.50;;;;;;5093592;28;20067;-55
2020/12/28 02:33:47;;;;;;;6.22;4.07;;;6.50;90.50;;;;;;5093631;28;20027;-52
2020/12/28 02:36:13;;;;;;;5.45;3.58;;;6.50;90.50;;;;;;5093574;28;20027;-52
2020/12/28 02:38:38;;;;;;;6.63;4.47;;;6.50;90.60;;;;;;5074896;28;20048;-52
2020/12/28 02:41:05;;;;;;;6.03;4.47;;;6.50;90.80;;;;;;5093369;28;20376;-51
2020/12/28 02:43:31;;;;;;;6.90;4.75;;;6.60;90.60;;;;;;5091679;28;20055;-53
2020/12/28 02:45:57;;;;;;;8.77;5.40;;;6.70;90.50;;;;;;5093397;28;20101;-54
2020/12/28 02:48:24;;;;;;;8.23;5.63;;;6.90;90.30;;;;;;5093550;28;20035;-50
2020/12/28 02:50:50;;;;;;;9.85;7.00;;;7.10;89.40;;;;;;5093230;28;20077;-54
2020/12/28 02:53:16;;;;;;;12.38;9.73;;;7.20;88.90;;;;;;5093445;28;20030;-52
2020/12/28 02:55:41;;;;;;;13.55;9.85;;;7.10;88.00;;;;;;5093493;28;20111;-53
2020/12/28 02:58:07;;;;;;;12.63;8.35;;;7.20;87.50;;;;;;5074684;28;20379;-52
2020/12/28 03:00:33;;;;;;;15.05;9.57;;;7.00;88.10;;;;;;5093307;28;20059;-52
2020/12/28 03:02:58;;;;;;;11.27;8.25;;;6.90;88.50;;;;;;5093164;28;20039;-52
2020/12/28 03:05:24;;;;;;;11.10;7.03;;;7.00;88.10;;;;;;5093457;28;20058;-54
2020/12/28 03:07:50;;;;;;;11.60;8.45;;;7.10;87.40;;;;;;5093032;28;20369;-53
2020/12/28 03:10:16;;;;;;;13.60;8.23;;;7.20;87.10;;;;;;5093298;28;20032;-53
2020/12/28 03:12:41;;;;;;;18.45;11.25;;;7.20;86.80;;;;;;5093218;28;20063;-54
2020/12/28 03:15:07;;;;;;;33.10;20.80;;;7.00;86.50;;;;;;5093311;28;20093;-50
2020/12/28 03:17:33;;;;;;;36.42;21.40;;;6.70;86.00;;;;;;5093071;28;20024;-50
2020/12/28 03:19:58;;;;;;;42.17;23.52;;;6.50;86.70;;;;;;5092841;28;20036;-53
2020/12/28 03:22:24;;;;;;;43.60;24.60;;;6.50;86.60;;;;;;5093153;28;20021;-50
2020/12/28 03:24:50;;;;;;;40.15;22.63;;;6.40;87.00;;;;;;5094209;28;20028;-53
2020/12/28 03:27:16;;;;;;;49.88;26.02;;;6.40;86.90;;;;;;5078116;28;20043;-51
2020/12/28 03:29:41;;;;;;;47.97;25.13;;;6.20;86.90;;;;;;5096863;28;20028;-54
2020/12/28 03:32:07;;;;;;;48.25;26.90;;;6.10;87.80;;;;;;5096575;28;20040;-51
2020/12/28 03:34:33;;;;;;;47.08;25.38;;;6.10;87.60;;;;;;5096936;28;20024;-54
2020/12/28 03:36:59;;;;;;;53.42;29.27;;;;;;;;;;5096617;28;20020;-54
2020/12/28 03:39:25;;;;;;;51.40;24.70;;;5.70;88.80;;;;;;5096716;28;20024;-51
2020/12/28 03:41:50;;;;;;;60.25;30.88;;;5.40;90.00;;;;;;5096574;28;20024;-52
2020/12/28 03:44:16;;;;;;;59.08;29.52;;;5.40;90.20;;;;;;5096523;28;20024;-51
2020/12/28 03:46:42;;;;;;;60.50;30.20;;;5.30;90.50;;;;;;5096571;28;20032;-55
2020/12/28 03:49:07;;;;;;;61.80;30.92;;;5.30;90.50;;;;;;5096331;28;20086;-52
2020/12/28 03:51:33;;;;;;;57.80;29.60;;;5.20;90.60;;;;;;5096244;28;20072;-52
2020/12/28 03:53:59;;;;;;;53.70;27.20;;;5.20;90.50;;;;;;5094374;28;20115;-51
2020/12/28 03:56:24;;;;;;;55.25;28.65;;;5.20;90.40;;;;;;5096375;28;20066;-51
2020/12/28 03:58:50;;;;;;;58.50;29.85;;;5.20;90.60;;;;;;5096208;28;20028;-54
2020/12/28 04:01:16;;;;;;;57.42;29.33;;;5.30;90.20;;;;;;5096184;28;20056;-51
2020/12/28 04:03:42;;;;;;;50.45;26.10;;;5.40;90.30;;;;;;5096315;28;20028;-51
2020/12/28 04:06:08;;;;;;;55.50;28.02;;;5.40;90.10;;;;;;5096201;28;20028;-52
2020/12/28 04:08:33;;;;;;;59.38;30.73;;;5.40;89.90;;;;;;5096108;28;20028;-50
2020/12/28 04:10:59;;;;;;;48.92;28.35;;;5.40;90.00;;;;;;5095935;28;20024;-50
2020/12/28 04:13:25;;;;;;;56.20;28.67;;;5.60;90.00;;;;;;5096071;28;20024;-51
2020/12/28 04:15:51;;;;;;;50.28;26.40;;;5.70;89.20;;;;;;5077450;28;20043;-51
2020/12/28 04:18:17;;;;;;;49.95;27.30;;;5.70;90.20;;;;;;5095837;28;20124;-51
2020/12/28 04:20:43;;;;;;;52.55;27.65;;;5.80;88.90;;;;;;5095629;28;20052;-53
2020/12/28 04:23:09;;;;;;;45.90;26.15;;;5.90;88.80;;;;;;5095719;28;20031;-51
2020/12/28 04:25:34;;;;;;;49.00;27.77;;;5.90;88.20;;;;;;5095713;28;20021;-51
2020/12/28 04:28:00;;;;;;;45.83;27.23;;;6.00;88.30;;;;;;5095685;28;20497;-50
2020/12/28 04:30:26;;;;;;;47.05;26.88;;;6.20;87.10;;;;;;5095753;28;20487;-51
2020/12/28 04:32:52;;;;;;;48.65;28.30;;;6.30;86.50;;;;;;5095591;28;20060;-52
2020/12/28 04:35:18;;;;;;;47.17;27.85;;;6.40;86.20;;;;;;5093451;28;20079;-53
2020/12/28 04:37:44;;;;;;;54.30;28.75;;;6.50;85.50;;;;;;5094983;28;20024;-53
2020/12/28 04:40:10;;;;;;;53.55;25.20;;;6.30;86.10;;;;;;5076843;28;20543;-51
2020/12/28 04:42:41;;;;;;;48.40;26.70;;;6.20;86.00;;;;;;5095393;28;20031;-52
2020/12/28 04:45:08;;;;;;;41.60;24.20;;;6.10;87.00;;;;;;5095257;28;20481;-52
2020/12/28 04:47:33;;;;;;;49.65;25.55;;;6.00;91.20;;;;;;5095319;28;20084;-53
2020/12/28 04:49:59;;;;;;;45.20;25.25;;;5.80;90.40;;;;;;5095266;28;20103;-53
2020/12/28 04:52:27;;;;;;;46.42;25.35;;;5.80;90.70;;;;;;5095195;28;20028;-52
2020/12/28 04:54:52;;;;;;;48.10;27.05;;;5.30;90.40;;;;;;5095180;28;20105;-53
2020/12/28 04:57:18;;;;;;;46.65;27.10;;;5.30;90.50;;;;;;5095031;28;20054;-52
2020/12/28 04:59:44;;;;;;;49.67;25.75;;;5.40;90.40;;;;;;5095192;28;20376;-53
2020/12/28 05:02:10;;;;;;;44.03;24.85;;;5.60;89.90;;;;;;5095063;28;20028;-50
2020/12/28 05:04:36;;;;;;;50.30;24.98;;;5.80;88.70;;;;;;5092928;28;20032;-51
2020/12/28 05:07:06;;;;;;;43.35;25.50;;;6.00;88.40;;;;;;5094997;28;20046;-50
2020/12/28 05:09:33;;;;;;;44.92;26.52;;;5.90;88.00;;;;;;5094945;28;20027;-51
2020/12/28 05:12:04;;;;;;;45.70;27.02;;;6.20;99.70;;;;;;5094732;28;20032;-52
2020/12/28 05:14:30;;;;;;;42.88;25.15;;;6.20;86.60;;;;;;5095170;28;20521;-54
2020/12/28 05:17:00;;;;;;;41.53;24.42;;;6.30;86.00;;;;;;5094734;28;20475;-51
2020/12/28 05:19:26;;;;;;;45.47;27.65;;;6.30;85.40;;;;;;5094488;28;20031;-51
2020/12/28 05:21:53;;;;;;;46.15;27.67;;;6.40;84.90;;;;;;5094597;28;20032;-50
2020/12/28 05:24:19;;;;;;;44.17;24.92;;;6.40;84.40;;;;;;5094758;28;20020;-50
2020/12/28 05:26:45;;;;;;;44.20;24.65;;;6.40;84.30;;;;;;5075772;28;20032;-52
2020/12/28 05:29:16;;;;;;;41.67;24.40;;;6.40;84.10;;;;;;5094650;28;20024;-50
2020/12/28 05:31:44;;;;;;;43.83;24.50;;;6.40;84.00;;;;;;5094340;28;20475;-50
2020/12/28 05:34:14;;;;;;;39.55;24.35;;;6.40;83.40;;;;;;5094440;28;20028;-52
2020/12/28 05:36:40;;;;;;;39.33;23.77;;;6.40;83.80;;;;;;5094388;28;20035;-53
2020/12/28 05:39:07;;;;;;;42.28;25.38;;;6.40;83.40;;;;;;5075374;28;20499;-51
2020/12/28 05:41:32;;;;;;;52.90;29.67;;;6.30;83.40;;;;;;5094344;28;20024;-53
2020/12/28 05:44:08;;;;;;;43.22;26.20;;;6.10;84.10;;;;;;5094403;28;20024;-50
2020/12/28 05:46:35;;;;;;;63.28;35.47;;;5.50;86.70;;;;;;5094158;28;20020;-54
2020/12/28 05:49:04;;;;;;;59.60;35.20;;;5.50;87.50;;;;;;5093375;28;20054;-51
2020/12/28 05:51:34;;;;;;;56.50;35.08;;;5.10;89.40;;;;;;5076007;28;20502;-50
2020/12/28 05:54:10;;;;;;;63.83;36.80;;;5.10;90.90;;;;;;5094132;28;20395;-52
2020/12/28 05:56:42;;;;;;;61.65;37.85;;;4.90;90.00;;;;;;5094051;28;20030;-51
2020/12/28 05:59:11;;;;;;;38.90;22.58;;;4.60;90.50;;;;;;5094058;28;20027;-50
2020/12/28 06:01:43;;;;;;;39.00;22.42;;;4.20;91.60;;;;;;5093877;28;20031;-53
2020/12/28 06:04:14;;;;;;;44.63;24.85;;;3.70;92.90;;;;;;5093185;28;20046;-51
2020/12/28 06:06:41;;;;;;;46.67;24.30;;;3.90;92.90;;;;;;5093220;28;20047;-51
2020/12/28 06:09:07;;;;;;;43.60;23.55;;;3.90;92.70;;;;;;5093149;28;20051;-55
2020/12/28 06:11:33;;;;;;;43.03;23.92;;;3.90;92.90;;;;;;5092902;28;20036;-50
2020/12/28 06:13:59;;;;;;;45.28;23.52;;;3.70;93.20;;;;;;5093151;28;20016;-53
2020/12/28 06:16:25;;;;;;;40.97;23.58;;;3.50;94.00;;;;;;5093604;28;20376;-53
2020/12/28 06:18:55;;;;;;;42.13;22.95;;;3.60;94.40;;;;;;5093614;28;20037;-51
2020/12/28 06:21:21;;;;;;;37.45;21.30;;;3.80;93.80;;;;;;5077125;28;20087;-53
2020/12/28 06:23:50;;;;;;;40.78;22.17;;;3.80;94.20;;;;;;5112934;28;20474;-53
2020/12/28 06:26:20;;;;;;;41.47;23.10;;;4.00;93.70;;;;;;5077797;28;20490;-54
2020/12/28 06:28:46;;;;;;;39.78;23.55;;;4.20;93.10;;;;;;5114128;28;20023;-51
2020/12/28 06:31:13;;;;;;;39.45;23.08;;;4.30;92.90;;;;;;5094369;28;20031;-54
2020/12/28 06:33:49;;;;;;;40.13;22.17;;;4.30;92.60;;;;;;5113233;28;20030;-51
2020/12/28 06:36:16;;;;;;;37.13;21.63;;;4.40;92.70;;;;;;5113463;28;20135;-51
2020/12/28 06:38:53;;;;;;;33.42;20.23;;;4.40;92.70;;;;;;5113079;28;20033;-53
2020/12/28 06:41:28;;;;;;;30.52;17.70;;;4.40;92.60;;;;;;5112566;28;20386;-51
2020/12/28 06:44:01;;;;;;;29.88;18.45;;;4.40;92.70;;;;;;5112542;28;20020;-52
2020/12/28 06:46:28;;;;;;;27.70;14.77;;;4.40;92.80;;;;;;5112623;28;20036;-53
2020/12/28 06:48:55;;;;;;;28.13;15.32;;;4.20;93.70;;;;;;5112448;28;20031;-52
2020/12/28 06:51:24;;;;;;;25.33;15.85;;;4.00;94.20;;;;;;5112491;28;20023;-52
2020/12/28 06:53:54;;;;;;;25.67;14.93;;;4.10;94.60;;;;;;5112592;28;20026;-51
2020/12/28 06:56:20;;;;;;;24.52;16.17;;;4.10;94.50;;;;;;5112499;28;20024;-50
2020/12/28 06:58:57;;;;;;;22.58;14.50;;;4.20;94.20;;;;;;5112462;28;20386;-52
2020/12/28 07:01:25;;;;;;;20.80;13.82;;;4.30;94.10;;;;;;5115741;28;20030;-52
2020/12/28 07:03:52;;;;;;;24.55;13.25;;;4.30;94.20;;;;;;5116460;28;20486;-54
2020/12/28 07:06:18;;;;;;;25.27;15.15;;;4.20;94.20;;;;;;5097319;28;20092;-54
2020/12/28 07:08:44;;;;;;;23.02;14.50;;;4.20;94.40;;;;;;5116523;28;20055;-57
2020/12/28 07:11:10;;;;;;;26.73;15.80;;;4.20;94.40;;;;;;5053235;28;20094;-62
2020/12/28 07:13:36;;;;;;;27.48;16.55;;;4.30;94.40;;;;;;5053145;28;20053;-49
2020/12/28 07:16:03;;;;;;;28.42;17.65;;;4.40;94.20;;;;;;5053327;28;20040;-56
2020/12/28 07:18:29;;;;;;;37.60;20.83;;;4.60;93.80;;;;;;5053236;28;20037;-59
2020/12/28 07:20:58;;;;;;;38.03;22.65;;;4.70;93.70;;;;;;5019576;28;20624;-55
2020/12/28 07:23:28;;;;;;;32.28;20.00;;;4.70;93.70;;;;;;5036015;28;20501;-53
2020/12/28 07:26:04;;;;;;;30.38;19.67;;;4.90;93.40;;;;;;5053134;28;20044;-52
2020/12/28 07:28:31;;;;;;;14.43;8.07;;;5.00;93.20;;;;;;5053092;28;20588;-54
2020/12/28 07:30:58;;;;;;;19.10;11.32;;;5.00;93.20;;;;;;5053062;28;20037;-52
2020/12/28 07:33:24;;;;;;;20.88;12.35;;;5.00;93.40;;;;;;5053064;28;20038;-53
2020/12/28 07:36:12;;;;;;;17.85;11.10;;;5.20;92.90;;;;;;5053059;28;20029;-56
2020/12/28 07:38:38;;;;;;;25.02;17.30;;;5.30;92.80;;;;;;5052909;28;20041;-56
2020/12/28 07:41:04;;;;;;;22.95;14.95;;;5.30;92.70;;;;;;5054931;28;20104;-56
2020/12/28 07:43:30;;;;;;;22.92;17.58;;;5.50;92.40;;;;;;5095229;28;20062;-56
2020/12/28 07:46:19;;;;;;;21.42;14.88;;;5.40;92.50;;;;;;5095363;28;20054;-56
2020/12/28 07:48:46;;;;;;;19.35;14.35;;;5.50;92.40;;;;;;5095128;28;20113;-55
2020/12/28 07:51:18;;;;;;;27.67;21.42;;;5.60;92.20;;;;;;5095193;28;20398;-54
2020/12/28 07:53:48;;;;;;;22.15;15.57;;;5.60;92.20;;;;;;5095153;28;20364;-56
2020/12/28 07:56:26;;;;;;;22.05;15.48;;;5.80;91.90;;;;;;5094668;28;20032;-58
2020/12/28 07:59:10;;;;;;;24.00;18.17;;;5.80;91.60;;;;;;5088943;28;20034;-59
2020/12/28 08:01:43;;;;;;;26.85;19.50;;;6.00;91.50;;;;;;5091976;28;20078;-53
2020/12/28 08:04:14;;;;;;;29.38;19.70;;;6.00;91.20;;;;;;5094387;28;20132;-56
2020/12/28 08:06:40;;;;;;;28.60;20.48;;;6.30;91.10;;;;;;5094278;28;20506;-57
2020/12/28 08:09:05;;;;;;;21.23;15.77;;;7.10;90.20;;;;;;5094232;28;20020;-56
2020/12/28 08:11:32;;;;;;;24.52;16.48;;;8.00;88.90;;;;;;5093057;28;20032;-56
2020/12/28 08:13:59;;;;;;;24.80;17.42;;;8.30;83.30;;;;;;5093781;28;20039;-54
2020/12/28 08:16:27;;;;;;;24.65;17.90;;;8.00;83.70;;;;;;5094153;28;20081;-54
2020/12/28 08:18:54;;;;;;;23.77;16.05;;;;;;;;;;5093905;28;20078;-48
2020/12/28 08:21:22;;;;;;;21.13;15.15;;;10.80;78.60;;;;;;5088519;28;20082;-57
2020/12/28 08:23:50;;;;;;;18.70;12.63;;;12.30;80.00;;;;;;5093937;28;20092;-53
2020/12/28 08:26:21;;;;;;;21.73;14.90;;;12.10;78.20;;;;;;5093691;28;20099;-54
2020/12/28 08:28:52;;;;;;;21.25;15.50;;;11.50;70.20;;;;;;5094622;28;20051;-56
2020/12/28 08:31:44;;;;;;;24.87;15.03;;;10.90;71.20;;;;;;5094153;28;20024;-56
2020/12/28 08:34:12;;;;;;;19.63;14.15;;;10.50;71.70;;;;;;5091647;28;20277;-54
2020/12/28 08:36:41;;;;;;;18.35;12.77;;;10.00;74.00;;;;;;5094744;28;20103;-54
2020/12/28 08:39:35;;;;;;;20.80;14.43;;;9.90;74.40;;;;;;5094993;28;20020;-56
2020/12/28 08:42:02;;;;;;;15.30;11.82;;;9.40;75.60;;;;;;5090431;28;20107;-54
2020/12/28 08:44:32;;;;;;;18.00;12.82;;;9.30;76.50;;;;;;5094729;28;20479;-56
2020/12/28 08:46:58;;;;;;;15.75;11.60;;;9.20;77.60;;;;;;5094806;28;20032;-54
2020/12/28 08:49:26;;;;;;;19.23;13.02;;;9.00;78.20;;;;;;5092672;28;20032;-55
2020/12/28 08:51:53;;;;;;;15.88;10.60;;;8.80;79.20;;;;;;5092774;28;20078;-54
2020/12/28 08:54:27;;;;;;;14.48;10.50;;;8.50;80.60;;;;;;5094427;28;20421;-53
2020/12/28 08:56:54;;;;;;;14.93;10.40;;;8.50;81.30;;;;;;5092653;28;20051;-54
2020/12/28 08:59:20;;;;;;;17.55;11.07;;;8.50;81.70;;;;;;5091822;28;20059;-53
2020/12/28 09:01:54;;;;;;;14.52;10.63;;;8.60;81.80;;;;;;5094447;28;20056;-56
2020/12/28 09:04:21;;;;;;;18.50;13.75;;;8.70;82.10;;;;;;5092039;28;20384;-55
2020/12/28 09:06:48;;;;;;;26.58;17.02;;;8.70;81.90;;;;;;5094962;28;20039;-54
2020/12/28 09:09:14;;;;;;;26.55;22.23;;;8.70;80.80;;;;;;5094942;28;20047;-55
2020/12/28 09:11:43;;;;;;;36.42;28.27;;;8.70;81.90;;;;;;5094615;28;20024;-53
2020/12/28 09:14:10;;;;;;;36.10;26.67;;;8.80;81.50;;;;;;5094890;28;20035;-56
2020/12/28 09:16:36;;;;;;;30.23;20.60;;;9.00;80.70;;;;;;5094088;28;20089;-53
2020/12/28 09:19:03;;;;;;;28.75;20.52;;;8.90;80.70;;;;;;5094933;28;20024;-55
2020/12/28 09:21:28;;;;;;;19.88;14.68;;;9.00;80.80;;;;;;5094530;28;20113;-56
2020/12/28 09:23:54;;;;;;;21.85;15.50;;;9.10;80.10;;;;;;5094497;28;20471;-53
2020/12/28 09:26:20;;;;;;;16.13;11.90;;;9.20;80.20;;;;;;5094580;28;20023;-53
2020/12/28 09:28:45;;;;;;;15.15;9.98;;;9.20;79.10;;;;;;5094797;28;20035;-54
2020/12/28 09:31:11;;;;;;;15.00;11.32;;;9.30;78.90;;;;;;5094645;28;20028;-55
2020/12/28 09:33:37;;;;;;;14.00;9.43;;;9.40;79.20;;;;;;5094421;28;20048;-53
2020/12/28 09:36:03;;;;;;;11.10;7.50;;;9.60;78.80;;;;;;5094793;28;20471;-55
2020/12/28 09:38:29;;;;;;;9.43;7.25;;;9.70;78.90;;;;;;5094462;28;20069;-55
2020/12/28 09:40:55;;;;;;;12.60;9.00;;;9.70;77.80;;;;;;5094551;28;20028;-54
2020/12/28 09:43:20;;;;;;;15.77;11.07;;;9.80;77.90;;;;;;5094518;28;20031;-56
2020/12/28 09:45:46;;;;;;;13.85;9.57;;;9.90;78.10;;;;;;5094483;28;20031;-56
2020/12/28 09:48:12;;;;;;;14.77;11.07;;;10.10;77.70;;;;;;5094315;28;20532;-53
2020/12/28 09:50:38;;;;;;;27.60;25.25;;;10.40;77.00;;;;;;5094689;28;20038;-56
2020/12/28 09:53:04;;;;;;;31.98;29.55;;;11.50;75.10;;;;;;5094085;28;20119;-53
2020/12/28 09:55:29;;;;;;;35.40;32.70;;;12.90;70.90;;;;;;5094046;28;20056;-54
2020/12/28 09:57:55;;;;;;;89.38;84.75;;;14.20;75.10;;;;;;5094155;28;20028;-54
2020/12/28 10:00:21;;;;;;;26.33;24.52;;;15.00;63.00;;;;;;5094242;28;20028;-53
2020/12/28 10:02:47;;;;;;;38.72;36.55;;;16.10;63.00;;;;;;5093987;28;20028;-55
2020/12/28 10:05:13;;;;;;;41.60;39.28;;;16.30;58.00;;;;;;5092573;28;20032;-54
2020/12/28 10:07:40;;;;;;;18.60;17.13;;;16.20;55.60;;;;;;5093717;28;20077;-56
2020/12/28 10:10:08;;;;;;;18.35;16.90;;;16.00;55.80;;;;;;5094150;28;20023;-54
2020/12/28 10:12:36;;;;;;;14.55;9.00;;;15.30;57.00;;;;;;5073830;28;20097;-56
2020/12/28 10:15:03;;;;;;;18.83;12.48;;;14.80;61.90;;;;;;5093065;28;20032;-54
2020/12/28 10:17:29;;;;;;;11.85;7.72;;;14.60;60.50;;;;;;5071117;28;20036;-54
2020/12/28 10:19:55;;;;;;;13.27;8.70;;;;;;;;;;5071044;28;20389;-53
2020/12/28 10:22:21;;;;;;;9.73;7.50;;;13.60;86.50;;;;;;5071270;28;20056;-54
2020/12/28 10:24:47;;;;;;;13.50;10.43;;;13.40;63.40;;;;;;5071283;28;20567;-53
2020/12/28 10:27:13;;;;;;;11.57;9.27;;;13.80;62.70;;;;;;5036971;28;20117;-55
2020/12/28 10:29:38;;;;;;;13.55;9.50;;;13.70;62.80;;;;;;5070509;28;20542;-55
2020/12/28 10:32:04;;;;;;;11.70;7.70;;;14.00;62.90;;;;;;5070109;28;20044;-55
2020/12/28 10:34:30;;;;;;;11.35;6.85;;;13.80;63.20;;;;;;5070076;28;20048;-54
2020/12/28 10:36:56;;;;;;;9.82;6.43;;;13.70;63.00;;;;;;5071016;28;20052;-55
2020/12/28 10:39:21;;;;;;;8.88;6.18;;;13.30;63.30;;;;;;5070862;28;20082;-56
2020/12/28 10:41:47;;;;;;;9.75;6.97;;;12.90;65.70;;;;;;5070232;28;20037;-53
2020/12/28 10:44:13;;;;;;;20.27;13.00;;;12.50;66.90;;;;;;5070786;28;20037;-53
2020/12/28 10:46:39;;;;;;;51.75;31.23;;;12.60;67.90;;;;;;5071237;28;20028;-54
2020/12/28 10:49:05;;;;;;;43.67;30.17;;;12.30;68.40;;;;;;5087946;28;20495;-55
2020/12/28 10:51:31;;;;;;;21.52;14.80;;;12.00;69.30;;;;;;5092898;28;20384;-54
2020/12/28 10:53:57;;;;;;;22.17;15.93;;;11.80;70.90;;;;;;5093430;28;20024;-53
2020/12/28 10:56:24;;;;;;;19.63;11.52;;;11.70;71.20;;;;;;5074132;28;20084;-53
2020/12/28 10:58:50;;;;;;;15.43;9.27;;;11.50;72.50;;;;;;5092907;28;20031;-55
2020/12/28 11:01:19;;;;;;;13.25;8.95;;;11.30;73.20;;;;;;5093218;28;20016;-52
2020/12/28 11:03:45;;;;;;;9.02;6.38;;;11.20;74.10;;;;;;5093089;28;20107;-53
2020/12/28 11:06:11;;;;;;;9.48;6.57;;;11.00;74.20;;;;;;5093157;28;20451;-53
2020/12/28 11:08:38;;;;;;;12.30;7.80;;;11.10;84.50;;;;;;5086260;28;20024;-55
2020/12/28 11:11:04;;;;;;;9.90;5.82;;;10.90;75.40;;;;;;5073948;28;20113;-52
2020/12/28 11:13:29;;;;;;;9.30;6.88;;;10.80;75.70;;;;;;5073106;28;20056;-52
2020/12/28 11:15:55;;;;;;;8.93;6.15;;;10.80;76.50;;;;;;5072999;28;20036;-55
2020/12/28 11:18:21;;;;;;;8.52;6.45;;;10.80;76.20;;;;;;5073033;28;20025;-55
2020/12/28 11:20:46;;;;;;;12.02;7.20;;;10.80;76.20;;;;;;5072815;28;20076;-54
2020/12/28 11:23:12;;;;;;;10.48;7.53;;;;;;;;;;5072795;28;20017;-56
2020/12/28 11:25:38;;;;;;;8.10;6.18;;;10.90;91.60;;;;;;5037788;28;20120;-55
2020/12/28 11:28:04;;;;;;;12.15;7.63;;;10.90;92.90;;;;;;5073075;28;20440;-55
2020/12/28 11:30:30;;;;;;;14.23;8.90;;;10.80;76.20;;;;;;5072980;28;20462;-52
2020/12/28 11:32:55;;;;;;;16.25;11.27;;;10.80;90.30;;;;;;5072725;28;20032;-54
2020/12/28 11:35:21;;;;;;;17.52;12.32;;;10.80;91.80;;;;;;5072847;28;20028;-53
2020/12/28 11:37:47;;;;;;;14.23;10.48;;;10.70;77.30;;;;;;5071090;28;20037;-50
2020/12/28 11:40:13;;;;;;;14.90;9.38;;;10.70;77.00;;;;;;5072843;28;20053;-50
2020/12/28 11:42:38;;;;;;;13.23;9.27;;;10.70;77.10;;;;;;5072737;28;20507;-51
2020/12/28 11:45:08;;;;;;;11.25;7.15;;;10.70;77.60;;;;;;5072621;28;20495;-51
2020/12/28 11:47:35;;;;;;;19.40;14.30;;;10.60;76.90;;;;;;5074571;28;20391;-52
2020/12/28 11:50:01;;;;;;;15.82;12.02;;;;;;;;;;5076118;28;20024;-50
2020/12/28 11:52:27;;;;;;;26.80;15.90;;;10.40;99.90;;;;;;5076042;28;20146;-51
2020/12/28 11:54:53;;;;;;;29.33;20.20;;;10.40;78.40;;;;;;5076513;28;20149;-50
2020/12/28 11:57:18;;;;;;;12.38;7.35;;;10.50;78.20;;;;;;5074339;28;20029;-50
2020/12/28 11:59:44;;;;;;;12.57;8.45;;;10.60;77.90;;;;;;5076022;28;20024;-50
2020/12/28 12:02:10;;;;;;;10.93;7.68;;;10.70;77.80;;;;;;5094414;28;20034;-51
2020/12/28 12:04:48;;;;;;;11.68;6.60;;;10.70;77.60;;;;;;5076775;28;20043;-51
2020/12/28 12:07:15;;;;;;;7.95;5.28;;;10.80;77.10;;;;;;5096281;28;20043;-50
2020/12/28 12:09:41;;;;;;;8.30;5.85;;;10.70;77.40;;;;;;5096181;28;20484;-51
2020/12/28 12:12:07;;;;;;;8.25;5.35;;;10.70;77.50;;;;;;5094611;28;20047;-50
2020/12/28 12:14:32;;;;;;;7.60;4.82;;;10.70;77.00;;;;;;5096360;28;20050;-50
2020/12/28 12:16:58;;;;;;;8.15;5.63;;;10.70;76.60;;;;;;5093875;28;20036;-50
2020/12/28 12:19:24;;;;;;;9.65;5.63;;;10.70;77.40;;;;;;5094543;28;20035;-51
2020/12/28 12:21:50;;;;;;;14.90;7.75;;;10.70;76.90;;;;;;5048456;28;20028;-51
2020/12/28 12:24:16;;;;;;;26.33;12.95;;;10.70;76.60;;;;;;5094095;28;20459;-50
2020/12/28 12:26:41;;;;;;;20.73;11.43;;;10.60;76.30;;;;;;5075482;28;20040;-50
2020/12/28 12:29:07;;;;;;;20.08;11.48;;;10.60;76.30;;;;;;5075550;28;20032;-50
2020/12/28 12:31:33;;;;;;;12.70;7.70;;;10.60;75.70;;;;;;5094477;28;20024;-50
2020/12/28 12:33:58;;;;;;;10.02;6.00;;;10.60;76.30;;;;;;5093989;28;20039;-51
2020/12/28 12:36:24;;;;;;;16.15;9.02;;;10.60;76.10;;;;;;5094517;28;20161;-50
2020/12/28 12:38:50;;;;;;;13.63;7.43;;;10.60;76.10;;;;;;5094325;28;20024;-51